createdAt,value
2018-09-10T00:00:49.038Z,40.52
2018-09-10T00:03:18.548Z,39.90
2018-09-10T00:05:48.036Z,40.29
2018-09-10T00:08:17.588Z,40.68
2018-09-10T00:10:47.068Z,40.25
2018-09-10T00:13:16.568Z,40.33
2018-09-10T00:15:46.050Z,40.75
2018-09-10T00:18:15.546Z,40.86
2018-09-10T00:20:45.084Z,40.56
2018-09-10T00:23:14.583Z,40.41
2018-09-10T00:25:44.055Z,40.73
2018-09-10T00:28:13.562Z,40.30
2018-09-10T00:30:43.052Z,40.44
2018-09-10T00:33:12.547Z,40.34
2018-09-10T00:35:42.007Z,40.67
2018-09-10T00:38:11.518Z,40.94
2018-09-10T00:40:41.044Z,40.75
2018-09-10T00:43:10.521Z,40.97
2018-09-10T00:45:40.036Z,40.97
2018-09-10T00:48:09.791Z,40.63
2018-09-10T00:50:39.283Z,41.25
2018-09-10T00:53:08.738Z,40.82
2018-09-10T00:55:38.229Z,40.50
2018-09-10T00:58:07.733Z,41.10
2018-09-10T01:00:37.232Z,40.79
2018-09-10T01:03:06.707Z,41.22
2018-09-10T01:05:36.223Z,41.09
2018-09-10T01:08:05.717Z,41.22
2018-09-10T01:10:35.207Z,40.79
2018-09-10T01:13:04.720Z,41.01
2018-09-10T01:15:34.183Z,41.18
2018-09-10T01:18:03.680Z,40.99
2018-09-10T01:20:33.171Z,41.77
2018-09-10T01:23:02.675Z,41.15
2018-09-10T01:25:32.194Z,41.18
2018-09-10T01:28:01.753Z,41.83
2018-09-10T01:30:31.250Z,41.86
2018-09-10T01:33:00.972Z,41.39
2018-09-10T01:35:33.518Z,41.87
2018-09-10T01:38:02.984Z,41.79
2018-09-10T01:40:32.491Z,42.00
2018-09-10T01:43:01.974Z,42.21
2018-09-10T01:45:31.510Z,41.83
2018-09-10T01:48:01.030Z,42.88
2018-09-10T01:50:30.545Z,41.86
2018-09-10T01:53:00.047Z,42.25
2018-09-10T01:55:29.504Z,42.60
2018-09-10T01:57:59.003Z,42.55
2018-09-10T02:00:28.478Z,42.29
2018-09-10T02:02:57.992Z,43.03
2018-09-10T02:05:27.456Z,42.59
2018-09-10T02:07:56.995Z,43.00
2018-09-10T02:10:26.508Z,42.81
2018-09-10T02:12:56.030Z,42.99
2018-09-10T02:15:25.628Z,42.49
2018-09-10T02:17:55.134Z,42.99
2018-09-10T02:20:24.720Z,42.54
2018-09-10T02:22:54.186Z,43.36
2018-09-10T02:25:23.716Z,42.77
2018-09-10T02:27:53.313Z,43.62
2018-09-10T02:30:22.816Z,43.07
2018-09-10T02:32:52.312Z,43.30
2018-09-10T02:35:21.840Z,43.85
2018-09-10T02:37:51.478Z,44.09
2018-09-10T02:40:21.045Z,44.57
2018-09-10T02:42:50.674Z,43.95
2018-09-10T02:45:20.195Z,43.85
2018-09-10T02:47:49.736Z,44.46
2018-09-10T02:50:19.368Z,44.45
2018-09-10T02:52:48.905Z,44.73
2018-09-10T02:55:18.609Z,44.98
2018-09-10T02:57:48.040Z,44.50
2018-09-10T03:00:17.665Z,45.00
2018-09-10T03:02:47.289Z,45.28
2018-09-10T03:05:16.824Z,44.74
2018-09-10T03:07:46.346Z,45.32
2018-09-10T03:10:15.851Z,45.10
2018-09-10T03:12:45.414Z,45.36
2018-09-10T03:15:14.983Z,44.84
2018-09-10T03:17:44.514Z,44.88
2018-09-10T03:20:14.088Z,44.86
2018-09-10T03:22:43.602Z,45.73
2018-09-10T03:25:13.124Z,45.21
2018-09-10T03:27:42.759Z,45.85
2018-09-10T03:30:12.296Z,45.70
2018-09-10T03:32:42.021Z,45.45
2018-09-10T03:35:11.560Z,45.26
2018-09-10T03:37:41.151Z,45.24
2018-09-10T03:40:10.723Z,45.62
2018-09-10T03:42:40.404Z,45.46
2018-09-10T03:45:09.959Z,45.47
2018-09-10T03:47:39.665Z,45.73
2018-09-10T03:50:09.178Z,45.52
2018-09-10T03:52:38.729Z,45.98
2018-09-10T03:55:08.351Z,46.29
2018-09-10T03:57:38.023Z,46.62
2018-09-10T04:00:07.663Z,46.57
2018-09-10T04:02:37.259Z,46.07
2018-09-10T04:05:07.212Z,46.28
2018-09-10T04:07:36.798Z,46.26
2018-09-10T04:10:06.475Z,46.64
2018-09-10T04:12:35.967Z,45.84
2018-09-10T04:15:05.754Z,46.23
2018-09-10T04:17:35.263Z,46.50
2018-09-10T04:20:09.326Z,45.25
2018-09-10T04:22:39.964Z,45.94
2018-09-10T04:25:09.491Z,46.00
2018-09-10T04:27:39.340Z,46.72
2018-09-10T04:30:13.028Z,45.91
2018-09-10T04:32:42.589Z,45.76
2018-09-10T04:35:12.411Z,45.77
2018-09-10T04:37:42.069Z,45.84
2018-09-10T04:40:11.644Z,46.18
2018-09-10T04:42:41.239Z,45.19
2018-09-10T04:45:10.750Z,45.34
2018-09-10T04:47:40.287Z,45.32
2018-09-10T04:50:09.840Z,44.83
2018-09-10T04:52:39.456Z,45.27
2018-09-10T04:55:09.023Z,44.68
2018-09-10T04:57:38.665Z,44.90
2018-09-10T05:00:08.278Z,44.39
2018-09-10T05:02:38.432Z,43.76
2018-09-10T05:05:08.006Z,43.72
2018-09-10T05:07:37.540Z,43.16
2018-09-10T05:10:07.223Z,43.25
2018-09-10T05:12:36.774Z,42.44
2018-09-10T05:15:06.489Z,42.04
2018-09-10T05:17:36.084Z,41.89
2018-09-10T05:20:05.706Z,42.26
2018-09-10T05:22:35.288Z,41.20
2018-09-10T05:25:04.867Z,41.85
2018-09-10T05:27:34.748Z,40.96
2018-09-10T05:30:04.455Z,41.78
2018-09-10T05:32:33.999Z,41.64
2018-09-10T05:35:03.511Z,41.20
2018-09-10T05:37:33.089Z,40.98
2018-09-10T05:40:02.651Z,40.32
2018-09-10T05:42:32.240Z,40.22
2018-09-10T05:45:01.849Z,39.50
2018-09-10T05:47:31.622Z,40.36
2018-09-10T05:50:01.131Z,39.30
2018-09-10T05:52:30.688Z,39.27
2018-09-10T05:55:00.239Z,39.17
2018-09-10T05:57:29.820Z,38.80
2018-09-10T05:59:59.383Z,38.80
2018-09-10T06:02:28.954Z,38.89
2018-09-10T06:04:58.607Z,38.50
2018-09-10T06:07:28.183Z,37.64
2018-09-10T06:09:57.781Z,37.65
2018-09-10T06:12:27.355Z,38.30
2018-09-10T06:14:57.157Z,38.01
2018-09-10T06:17:26.739Z,37.12
2018-09-10T06:19:56.312Z,37.01
2018-09-10T06:22:25.883Z,36.84
2018-09-10T06:24:55.421Z,36.83
2018-09-10T06:27:24.998Z,36.99
2018-09-10T06:29:54.546Z,37.40
2018-09-10T06:32:24.188Z,37.12
2018-09-10T06:34:53.859Z,36.71
2018-09-10T06:37:23.835Z,37.31
2018-09-10T06:39:53.403Z,37.00
2018-09-10T06:42:23.092Z,36.96
2018-09-10T06:44:52.643Z,36.53
2018-09-10T06:47:22.291Z,36.52
2018-09-10T06:49:51.908Z,37.11
2018-09-10T06:52:22.267Z,37.84
2018-09-10T06:54:51.808Z,37.09
2018-09-10T06:57:21.431Z,37.22
2018-09-10T06:59:51.043Z,38.06
2018-09-10T07:02:20.677Z,37.65
2018-09-10T07:04:50.263Z,38.14
2018-09-10T07:07:19.799Z,38.28
2018-09-10T07:09:49.362Z,38.69
2018-09-10T07:12:18.927Z,38.32
2018-09-10T07:14:48.467Z,38.74
2018-09-10T07:17:18.052Z,38.58
2018-09-10T07:19:47.579Z,38.30
2018-09-10T07:22:17.205Z,37.63
2018-09-10T07:24:46.775Z,37.68
2018-09-10T07:27:16.335Z,38.48
2018-09-10T07:29:45.937Z,37.96
2018-09-10T07:32:15.676Z,38.51
2018-09-10T07:34:45.204Z,38.05
2018-09-10T07:37:14.771Z,38.57
2018-09-10T07:39:44.426Z,38.71
2018-09-10T07:42:13.957Z,38.40
2018-09-10T07:44:43.529Z,39.28
2018-09-10T07:47:13.159Z,38.99
2018-09-10T07:49:42.767Z,38.35
2018-09-10T07:52:12.342Z,38.22
2018-09-10T07:54:41.986Z,37.44
2018-09-10T07:57:11.462Z,37.40
2018-09-10T07:59:41.051Z,36.54
2018-09-10T08:02:10.692Z,37.20
2018-09-10T08:04:40.296Z,36.46
2018-09-10T08:07:09.884Z,36.67
2018-09-10T08:09:39.534Z,35.50
2018-09-10T08:12:09.065Z,35.99
2018-09-10T08:14:38.620Z,36.29
2018-09-10T08:17:08.272Z,35.33
2018-09-10T08:19:37.960Z,35.49
2018-09-10T08:22:07.588Z,35.46
2018-09-10T08:24:37.178Z,35.78
2018-09-10T08:27:06.724Z,35.15
2018-09-10T08:29:36.307Z,34.51
2018-09-10T08:32:06.006Z,34.02
2018-09-10T08:34:35.722Z,33.93
2018-09-10T08:37:05.496Z,34.29
2018-09-10T08:39:35.352Z,33.34
2018-09-10T08:42:04.938Z,33.89
2018-09-10T08:44:34.555Z,34.26
2018-09-10T08:47:04.175Z,33.78
2018-09-10T08:49:33.819Z,33.56
2018-09-10T08:52:03.450Z,33.41
2018-09-10T08:54:33.333Z,33.66
2018-09-10T08:57:02.727Z,34.27
2018-09-10T08:59:32.267Z,34.31
2018-09-10T09:02:01.908Z,33.68
2018-09-10T09:04:31.648Z,32.96
2018-09-10T09:07:01.220Z,32.27
2018-09-10T09:09:30.768Z,31.33
2018-09-10T09:12:00.344Z,31.00
2018-09-10T09:14:29.860Z,31.25
2018-09-10T09:16:59.434Z,32.00
2018-09-10T09:19:29.032Z,31.14
2018-09-10T09:21:58.577Z,30.36
2018-09-10T09:24:28.133Z,30.57
2018-09-10T09:26:57.708Z,29.98
2018-09-10T09:29:27.243Z,30.10
2018-09-10T09:31:56.807Z,30.45
2018-09-10T09:34:30.396Z,29.31
2018-09-10T09:37:05.002Z,28.93
2018-09-10T09:39:39.582Z,29.15
2018-09-10T09:42:14.313Z,27.57
2018-09-10T09:44:48.948Z,28.70
2018-09-10T09:47:21.382Z,28.26
2018-09-10T09:49:51.082Z,28.47
2018-09-10T09:52:20.624Z,28.00
2018-09-10T09:54:50.669Z,27.90
2018-09-10T09:57:20.457Z,28.79
2018-09-10T09:59:50.040Z,28.64
2018-09-10T10:02:20.693Z,28.27
2018-09-10T10:04:50.301Z,28.69
2018-09-10T10:07:19.864Z,28.05
2018-09-10T10:09:49.433Z,28.61
2018-09-10T10:12:19.044Z,28.40
2018-09-10T10:14:48.901Z,28.42
2018-09-10T10:17:20.615Z,28.83
2018-09-10T10:19:51.170Z,27.82
2018-09-10T10:22:20.746Z,27.91
2018-09-10T10:24:50.280Z,28.08
2018-09-10T10:27:20.112Z,28.46
2018-09-10T10:29:49.736Z,28.00
2018-09-10T10:32:19.275Z,27.89
2018-09-10T10:34:48.849Z,27.10
2018-09-10T10:37:18.432Z,27.74
2018-09-10T10:39:48.024Z,27.09
2018-09-10T10:42:17.587Z,27.39
2018-09-10T10:44:47.181Z,27.00
2018-09-10T10:47:16.793Z,27.13
2018-09-10T10:49:46.486Z,27.01
2018-09-10T10:52:16.117Z,27.92
2018-09-10T10:54:45.726Z,26.69
2018-09-10T10:57:15.317Z,27.13
2018-09-10T10:59:44.888Z,26.80
2018-09-10T11:02:14.416Z,26.11
2018-09-10T11:04:43.984Z,26.06
2018-09-10T11:07:13.531Z,28.03
2018-09-10T11:09:43.092Z,27.07
2018-09-10T11:12:12.747Z,28.78
2018-09-10T11:14:42.332Z,27.68
2018-09-10T11:17:11.929Z,28.05
2018-09-10T11:19:41.533Z,26.94
2018-09-10T11:22:11.595Z,27.19
2018-09-10T11:24:41.277Z,27.08
2018-09-10T11:27:10.843Z,27.28
2018-09-10T11:29:40.501Z,27.58
2018-09-10T11:32:10.087Z,27.28
2018-09-10T11:34:39.633Z,27.11
2018-09-10T11:37:09.255Z,26.42
2018-09-10T11:39:38.912Z,26.83
2018-09-10T11:42:08.470Z,26.76
2018-09-10T11:44:37.975Z,27.11
2018-09-10T11:47:07.705Z,26.90
2018-09-10T11:49:37.235Z,27.59
2018-09-10T11:52:06.974Z,27.42
2018-09-10T11:54:36.490Z,27.08
2018-09-10T11:57:06.149Z,27.27
2018-09-10T11:59:36.398Z,27.52
2018-09-10T12:02:07.182Z,27.37
2018-09-10T12:04:36.780Z,27.58
2018-09-10T12:07:06.639Z,27.14
2018-09-10T12:09:36.224Z,26.86
2018-09-10T12:12:06.517Z,26.24
2018-09-10T12:14:36.070Z,26.23
2018-09-10T12:17:05.645Z,26.61
2018-09-10T12:19:35.331Z,25.77
2018-09-10T12:22:04.942Z,26.23
2018-09-10T12:24:35.135Z,25.93
2018-09-10T12:27:04.709Z,25.95
2018-09-10T12:29:34.251Z,25.34
2018-09-10T12:32:03.861Z,26.04
2018-09-10T12:34:33.452Z,26.13
2018-09-10T12:37:03.036Z,26.04
2018-09-10T12:39:32.608Z,26.04
2018-09-10T12:42:02.119Z,26.60
2018-09-10T12:44:31.764Z,25.29
2018-09-10T12:47:01.540Z,25.49
2018-09-10T12:49:31.448Z,25.87
2018-09-10T12:52:00.963Z,24.40
2018-09-10T12:54:30.648Z,24.23
2018-09-10T12:57:00.186Z,24.60
2018-09-10T12:59:29.832Z,23.86
2018-09-10T13:01:59.410Z,25.22
2018-09-10T13:04:28.965Z,24.43
2018-09-10T13:06:58.596Z,25.17
2018-09-10T13:09:28.134Z,25.13
2018-09-10T13:11:57.832Z,25.17
2018-09-10T13:14:27.756Z,25.52
2018-09-10T13:16:57.280Z,25.08
2018-09-10T13:19:26.891Z,24.59
2018-09-10T13:21:56.451Z,24.63
2018-09-10T13:24:25.977Z,24.85
2018-09-10T13:26:55.871Z,25.02
2018-09-10T13:29:25.494Z,25.69
2018-09-10T13:31:54.993Z,25.27
2018-09-10T13:34:24.600Z,25.79
2018-09-10T13:36:54.140Z,24.75
2018-09-10T13:39:24.062Z,24.67
2018-09-10T13:41:53.647Z,24.48
2018-09-10T13:44:23.408Z,24.99
2018-09-10T13:46:53.038Z,24.61
2018-09-10T13:49:23.566Z,25.14
2018-09-10T13:51:53.463Z,24.24
2018-09-10T13:54:23.135Z,23.94
2018-09-10T13:56:52.713Z,23.93
2018-09-10T13:59:22.409Z,23.62
2018-09-10T14:01:52.034Z,24.23
2018-09-10T14:04:21.655Z,24.03
2018-09-10T14:06:51.332Z,23.44
2018-09-10T14:09:20.887Z,24.11
2018-09-10T14:11:50.644Z,24.29
2018-09-10T14:14:20.317Z,23.92
2018-09-10T14:16:49.868Z,23.71
2018-09-10T14:19:19.486Z,23.69
2018-09-10T14:21:49.829Z,24.15
2018-09-10T14:24:19.423Z,23.97
2018-09-10T14:26:55.651Z,23.82
2018-09-10T14:29:25.238Z,24.33
2018-09-10T14:31:54.953Z,22.77
2018-09-10T14:34:24.514Z,23.39
2018-09-10T14:36:54.160Z,23.45
2018-09-10T14:39:23.723Z,23.81
2018-09-10T14:41:53.300Z,23.07
2018-09-10T14:44:22.843Z,23.02
2018-09-10T14:46:52.462Z,23.53
2018-09-10T14:49:22.047Z,23.09
2018-09-10T14:51:51.632Z,23.92
2018-09-10T14:54:21.180Z,23.08
2018-09-10T14:56:50.839Z,23.32
2018-09-10T14:59:20.339Z,23.02
2018-09-10T15:01:49.886Z,23.59
2018-09-10T15:04:19.494Z,23.97
2018-09-10T15:06:48.987Z,23.83
2018-09-10T15:09:18.586Z,23.71
2018-09-10T15:11:48.161Z,24.02
2018-09-10T15:14:17.673Z,24.46
2018-09-10T15:16:47.296Z,24.08
2018-09-10T15:19:16.877Z,24.19
2018-09-10T15:21:46.412Z,24.37
2018-09-10T15:24:16.085Z,23.76
2018-09-10T15:26:45.603Z,24.25
2018-09-10T15:29:15.119Z,23.59
2018-09-10T15:31:44.619Z,23.76
2018-09-10T15:34:14.536Z,23.89
2018-09-10T15:36:44.168Z,23.53
2018-09-10T15:39:13.768Z,24.12
2018-09-10T15:41:43.259Z,24.24
2018-09-10T15:44:12.875Z,23.92
2018-09-10T15:46:42.437Z,24.14
2018-09-10T15:49:12.091Z,24.17
2018-09-10T15:51:41.599Z,24.51
2018-09-10T15:54:11.197Z,24.48
2018-09-10T15:56:40.848Z,25.33
2018-09-10T15:59:10.474Z,25.25
2018-09-10T16:01:40.124Z,25.52
2018-09-10T16:04:09.681Z,25.92
2018-09-10T16:06:39.218Z,25.63
2018-09-10T16:09:09.283Z,26.40
2018-09-10T16:11:38.872Z,26.18
2018-09-10T16:14:08.371Z,26.37
2018-09-10T16:16:37.855Z,26.95
2018-09-10T16:19:07.397Z,27.22
2018-09-10T16:21:36.992Z,27.80
2018-09-10T16:24:06.615Z,27.32
2018-09-10T16:26:36.172Z,28.18
2018-09-10T16:29:05.753Z,28.24
2018-09-10T16:31:35.299Z,29.04
2018-09-10T16:34:04.871Z,28.17
2018-09-10T16:36:34.397Z,28.94
2018-09-10T16:39:04.145Z,29.09
2018-09-10T16:41:33.667Z,29.07
2018-09-10T16:44:03.249Z,28.42
2018-09-10T16:46:32.983Z,29.41
2018-09-10T16:49:02.975Z,29.67
2018-09-10T16:51:32.495Z,29.92
2018-09-10T16:54:02.057Z,29.68
2018-09-10T16:56:31.667Z,29.79
2018-09-10T16:59:01.252Z,30.65
2018-09-10T17:01:30.759Z,30.77
2018-09-10T17:04:00.307Z,31.47
2018-09-10T17:06:29.814Z,31.50
2018-09-10T17:08:59.423Z,32.13
2018-09-10T17:11:28.976Z,31.77
2018-09-10T17:13:58.543Z,31.90
2018-09-10T17:16:28.039Z,32.69
2018-09-10T17:18:57.643Z,32.09
2018-09-10T17:21:27.245Z,32.60
2018-09-10T17:23:56.735Z,32.55
2018-09-10T17:26:26.265Z,32.43
2018-09-10T17:28:55.848Z,33.19
2018-09-10T17:31:25.390Z,33.65
2018-09-10T17:33:55.032Z,33.45
2018-09-10T17:36:24.597Z,34.43
2018-09-10T17:38:54.115Z,35.08
2018-09-10T17:41:23.658Z,34.44
2018-09-10T17:43:53.186Z,35.43
2018-09-10T17:46:22.779Z,35.21
2018-09-10T17:48:52.314Z,34.87
2018-09-10T17:51:21.851Z,36.13
2018-09-10T17:53:51.378Z,36.36
2018-09-10T17:56:21.015Z,35.95
2018-09-10T17:58:50.795Z,36.20
2018-09-10T18:01:20.384Z,36.83
2018-09-10T18:03:49.933Z,36.32
2018-09-10T18:06:19.439Z,35.84
2018-09-10T18:08:48.965Z,36.24
2018-09-10T18:11:18.482Z,36.55
2018-09-10T18:13:47.992Z,36.86
2018-09-10T18:16:17.523Z,37.39
2018-09-10T18:18:47.093Z,37.71
2018-09-10T18:21:16.631Z,37.15
2018-09-10T18:23:46.120Z,37.86
2018-09-10T18:26:15.660Z,37.13
2018-09-10T18:28:45.150Z,38.17
2018-09-10T18:31:14.687Z,38.30
2018-09-10T18:33:44.207Z,38.12
2018-09-10T18:36:13.751Z,38.52
2018-09-10T18:38:43.304Z,38.50
2018-09-10T18:41:12.959Z,38.68
2018-09-10T18:43:42.450Z,38.96
2018-09-10T18:46:11.988Z,39.31
2018-09-10T18:48:41.810Z,38.46
2018-09-10T18:51:11.470Z,38.69
2018-09-10T18:53:40.994Z,38.43
2018-09-10T18:56:10.648Z,39.22
2018-09-10T18:58:40.159Z,38.79
2018-09-10T19:01:09.997Z,38.79
2018-09-10T19:03:39.325Z,38.35
2018-09-10T19:06:08.859Z,38.32
2018-09-10T19:08:38.378Z,38.57
2018-09-10T19:11:07.982Z,38.41
2018-09-10T19:13:37.461Z,37.96
2018-09-10T19:16:07.080Z,37.90
2018-09-10T19:18:38.907Z,37.63
2018-09-10T19:21:08.900Z,37.79
2018-09-10T19:23:39.058Z,37.71
2018-09-10T19:26:08.627Z,38.21
2018-09-10T19:28:38.124Z,38.21
2018-09-10T19:31:07.670Z,37.63
2018-09-10T19:33:37.235Z,38.16
2018-09-10T19:36:06.790Z,37.13
2018-09-10T19:38:36.340Z,37.41
2018-09-10T19:41:05.904Z,37.79
2018-09-10T19:43:35.432Z,37.45
2018-09-10T19:46:04.975Z,36.67
2018-09-10T19:48:34.519Z,36.97
2018-09-10T19:51:04.155Z,37.11
2018-09-10T19:53:33.714Z,36.69
2018-09-10T19:56:03.240Z,37.10
2018-09-10T19:58:32.852Z,37.21
2018-09-10T20:01:02.395Z,37.77
2018-09-10T20:03:31.943Z,37.99
2018-09-10T20:06:01.445Z,37.66
2018-09-10T20:08:30.971Z,37.08
2018-09-10T20:11:00.513Z,37.19
2018-09-10T20:13:30.040Z,37.69
2018-09-10T20:15:59.564Z,37.67
2018-09-10T20:18:29.167Z,38.41
2018-09-10T20:20:58.705Z,38.05
2018-09-10T20:23:28.388Z,38.27
2018-09-10T20:25:57.895Z,37.80
2018-09-10T20:28:27.431Z,38.16
2018-09-10T20:30:57.060Z,38.30
2018-09-10T20:33:26.603Z,38.07
2018-09-10T20:35:56.100Z,38.39
2018-09-10T20:38:25.626Z,39.21
2018-09-10T20:40:55.200Z,38.96
2018-09-10T20:43:24.723Z,38.66
2018-09-10T20:45:54.304Z,38.75
2018-09-10T20:48:23.785Z,38.91
2018-09-10T20:50:53.256Z,38.69
2018-09-10T20:53:22.836Z,39.58
2018-09-10T20:55:52.374Z,39.41
2018-09-10T20:58:21.876Z,39.22
2018-09-10T21:00:51.451Z,39.78
2018-09-10T21:03:21.002Z,39.37
2018-09-10T21:05:50.568Z,39.15
2018-09-10T21:08:20.140Z,39.88
2018-09-10T21:10:49.675Z,39.79
2018-09-10T21:13:19.291Z,39.34
2018-09-10T21:15:48.839Z,39.56
2018-09-10T21:18:18.409Z,39.28
2018-09-10T21:20:47.888Z,39.12
2018-09-10T21:23:17.480Z,39.81
2018-09-10T21:25:47.034Z,39.62
2018-09-10T21:28:16.570Z,38.90
2018-09-10T21:30:46.159Z,39.41
2018-09-10T21:33:15.752Z,39.69
2018-09-10T21:35:45.246Z,39.13
2018-09-10T21:38:14.782Z,39.85
2018-09-10T21:40:44.363Z,39.92
2018-09-10T21:43:13.956Z,39.97
2018-09-10T21:45:43.495Z,39.96
2018-09-10T21:48:13.120Z,39.71
2018-09-10T21:50:42.728Z,39.89
2018-09-10T21:53:12.348Z,40.07
2018-09-10T21:55:41.924Z,40.25
2018-09-10T21:58:11.435Z,39.72
2018-09-10T22:00:46.517Z,39.61
2018-09-10T22:03:16.017Z,39.78
2018-09-10T22:05:45.541Z,39.29
2018-09-10T22:08:15.208Z,40.37
2018-09-10T22:10:44.725Z,39.25
2018-09-10T22:13:14.312Z,39.47
2018-09-10T22:15:43.995Z,39.88
2018-09-10T22:18:14.078Z,39.30
2018-09-10T22:20:44.102Z,39.74
2018-09-10T22:23:13.734Z,40.13
2018-09-10T22:25:43.264Z,40.56
2018-09-10T22:28:12.780Z,40.16
2018-09-10T22:30:42.349Z,40.39
2018-09-10T22:33:11.931Z,39.90
2018-09-10T22:35:41.509Z,40.48
2018-09-10T22:38:11.019Z,40.65
2018-09-10T22:40:40.560Z,40.00
2018-09-10T22:43:10.128Z,40.09
2018-09-10T22:45:39.812Z,40.77
2018-09-10T22:48:09.329Z,41.05
2018-09-10T22:50:38.894Z,40.94
2018-09-10T22:53:08.436Z,40.36
2018-09-10T22:55:37.928Z,40.46
2018-09-10T22:58:07.476Z,40.71
2018-09-10T23:00:36.974Z,40.58
2018-09-10T23:03:06.726Z,40.96
2018-09-10T23:05:36.232Z,40.97
2018-09-10T23:08:05.779Z,41.12
2018-09-10T23:10:35.346Z,41.38
2018-09-10T23:13:04.920Z,41.84
2018-09-10T23:15:34.559Z,41.19
2018-09-10T23:18:04.106Z,41.73
2018-09-10T23:20:33.612Z,40.99
2018-09-10T23:23:03.089Z,41.63
2018-09-10T23:25:32.676Z,41.93
2018-09-10T23:28:02.240Z,41.52
2018-09-10T23:30:31.808Z,41.98
2018-09-10T23:33:01.359Z,41.82
2018-09-10T23:35:30.855Z,42.42
2018-09-10T23:38:00.395Z,42.46
2018-09-10T23:40:29.879Z,42.72
2018-09-10T23:42:59.532Z,42.01
2018-09-10T23:45:29.042Z,43.21
2018-09-10T23:47:58.663Z,42.95
2018-09-10T23:50:28.207Z,42.04
2018-09-10T23:52:57.781Z,42.21
2018-09-10T23:55:27.315Z,43.04
2018-09-10T23:57:56.799Z,42.31
